sensor_id;sensor_type;location;lat;lon;timestamp;pressure;altitude;pressure_sealevel;temperature;humidity
63956;BME280;50131;52.084;5.228;2022-09-09T00:00:11;100792.0;;;17.11;88.16
63956;BME280;50131;52.084;5.228;2022-09-09T00:03:40;100791.0;;;17.07;87.83
63956;BME280;50131;52.084;5.228;2022-09-09T00:05:24;100788.0;;;17.02;88.14
63956;BME280;50131;52.084;5.228;2022-09-09T00:07:10;100787.0;;;17.02;88.23
63956;BME280;50131;52.084;5.228;2022-09-09T00:08:59;100788.0;;;17.02;88.02
63956;BME280;50131;52.084;5.228;2022-09-09T00:10:40;100786.0;;;17.02;87.88
63956;BME280;50131;52.084;5.228;2022-09-09T00:14:18;100788.0;;;16.96;88.34
63956;BME280;50131;52.084;5.228;2022-09-09T00:16:01;100786.0;;;17.0;88.36
63956;BME280;50131;52.084;5.228;2022-09-09T00:17:43;100783.0;;;16.95;88.7
63956;BME280;50131;52.084;5.228;2022-09-09T00:19:31;100782.0;;;16.96;88.62
63956;BME280;50131;52.084;5.228;2022-09-09T00:21:17;100781.0;;;16.95;88.38
63956;BME280;50131;52.084;5.228;2022-09-09T00:24:43;100780.0;;;16.88;88.59
63956;BME280;50131;52.084;5.228;2022-09-09T00:26:26;100780.0;;;16.88;88.19
63956;BME280;50131;52.084;5.228;2022-09-09T00:28:13;100780.0;;;16.81;88.55
63956;BME280;50131;52.084;5.228;2022-09-09T00:29:56;100774.0;;;16.78;89.4
63956;BME280;50131;52.084;5.228;2022-09-09T00:31:37;100773.0;;;16.84;88.48
63956;BME280;50131;52.084;5.228;2022-09-09T00:34:57;100767.0;;;16.8;88.89
63956;BME280;50131;52.084;5.228;2022-09-09T00:36:38;100768.0;;;16.88;88.32
63956;BME280;50131;52.084;5.228;2022-09-09T00:38:18;100766.0;;;16.79;88.65
63956;BME280;50131;52.084;5.228;2022-09-09T00:39:59;100768.0;;;16.77;88.72
63956;BME280;50131;52.084;5.228;2022-09-09T00:43:39;100770.0;;;16.75;88.62
63956;BME280;50131;52.084;5.228;2022-09-09T00:45:33;100766.0;;;16.73;88.82
63956;BME280;50131;52.084;5.228;2022-09-09T00:47:36;100772.0;;;16.75;88.52
63956;BME280;50131;52.084;5.228;2022-09-09T00:49:38;100767.0;;;16.73;88.25
63956;BME280;50131;52.084;5.228;2022-09-09T00:51:27;100771.0;;;16.73;88.03
63956;BME280;50131;52.084;5.228;2022-09-09T00:53:22;100775.0;;;16.68;89.02
63956;BME280;50131;52.084;5.228;2022-09-09T00:55:09;100778.0;;;16.61;89.59
63956;BME280;50131;52.084;5.228;2022-09-09T00:56:59;100778.0;;;16.59;90.77
63956;BME280;50131;52.084;5.228;2022-09-09T00:58:43;100782.0;;;16.5;90.73
63956;BME280;50131;52.084;5.228;2022-09-09T01:03:55;100784.0;;;16.52;90.8
63956;BME280;50131;52.084;5.228;2022-09-09T01:05:35;100781.0;;;16.56;90.09
63956;BME280;50131;52.084;5.228;2022-09-09T01:07:17;100778.0;;;16.45;90.42
63956;BME280;50131;52.084;5.228;2022-09-09T01:10:58;100774.0;;;16.4;90.84
63956;BME280;50131;52.084;5.228;2022-09-09T01:12:39;100768.0;;;16.39;91.48
63956;BME280;50131;52.084;5.228;2022-09-09T01:14:29;100769.0;;;16.45;90.27
63956;BME280;50131;52.084;5.228;2022-09-09T01:16:10;100771.0;;;16.45;90.05
63956;BME280;50131;52.084;5.228;2022-09-09T01:17:52;100772.0;;;16.47;89.65
63956;BME280;50131;52.084;5.228;2022-09-09T01:19:43;100770.0;;;16.43;89.52
63956;BME280;50131;52.084;5.228;2022-09-09T01:23:28;100762.0;;;16.43;89.56
63956;BME280;50131;52.084;5.228;2022-09-09T01:25:19;100769.0;;;16.45;89.5
63956;BME280;50131;52.084;5.228;2022-09-09T01:27:52;100762.0;;;16.37;89.76
63956;BME280;50131;52.084;5.228;2022-09-09T01:29:32;100761.0;;;16.39;89.22
63956;BME280;50131;52.084;5.228;2022-09-09T01:31:11;100759.0;;;16.38;89.07
63956;BME280;50131;52.084;5.228;2022-09-09T01:32:53;100760.0;;;16.38;89.13
63956;BME280;50131;52.084;5.228;2022-09-09T01:34:34;100758.0;;;16.36;89.41
63956;BME280;50131;52.084;5.228;2022-09-09T01:39:39;100764.0;;;16.27;89.46
63956;BME280;50131;52.084;5.228;2022-09-09T01:41:18;100765.0;;;16.27;89.95
63956;BME280;50131;52.084;5.228;2022-09-09T01:42:55;100766.0;;;16.25;90.84
63956;BME280;50131;52.084;5.228;2022-09-09T01:46:11;100765.0;;;16.23;90.66
63956;BME280;50131;52.084;5.228;2022-09-09T01:47:49;100764.0;;;16.23;89.79
63956;BME280;50131;52.084;5.228;2022-09-09T01:49:26;100763.0;;;16.22;89.96
63956;BME280;50131;52.084;5.228;2022-09-09T01:51:03;100758.0;;;16.21;89.2
63956;BME280;50131;52.084;5.228;2022-09-09T01:54:16;100752.0;;;16.23;89.4
63956;BME280;50131;52.084;5.228;2022-09-09T01:56:02;100750.0;;;16.27;88.98
63956;BME280;50131;52.084;5.228;2022-09-09T01:59:43;100750.0;;;16.22;88.9
63956;BME280;50131;52.084;5.228;2022-09-09T02:01:32;100746.0;;;16.2;88.81
63956;BME280;50131;52.084;5.228;2022-09-09T02:05:07;100745.0;;;16.2;89.28
63956;BME280;50131;52.084;5.228;2022-09-09T02:06:55;100742.0;;;16.15;88.81
63956;BME280;50131;52.084;5.228;2022-09-09T02:08:37;100737.0;;;16.12;89.09
63956;BME280;50131;52.084;5.228;2022-09-09T02:10:21;100739.0;;;16.11;89.01
63956;BME280;50131;52.084;5.228;2022-09-09T02:12:10;100734.0;;;16.11;88.84
63956;BME280;50131;52.084;5.228;2022-09-09T02:15:32;100731.0;;;16.11;89.36
63956;BME280;50131;52.084;5.228;2022-09-09T02:17:17;100731.0;;;16.12;89.08
63956;BME280;50131;52.084;5.228;2022-09-09T02:19:01;100723.0;;;16.07;88.88
63956;BME280;50131;52.084;5.228;2022-09-09T02:20:42;100730.0;;;16.04;89.61
63956;BME280;50131;52.084;5.228;2022-09-09T02:22:22;100731.0;;;15.99;89.27
63956;BME280;50131;52.084;5.228;2022-09-09T02:25:41;100737.0;;;16.04;89.35
63956;BME280;50131;52.084;5.228;2022-09-09T02:27:20;100735.0;;;16.06;89.35
63956;BME280;50131;52.084;5.228;2022-09-09T02:28:59;100735.0;;;15.99;89.74
63956;BME280;50131;52.084;5.228;2022-09-09T02:30:40;100735.0;;;16.04;89.45
63956;BME280;50131;52.084;5.228;2022-09-09T02:34:00;100734.0;;;16.09;89.3
63956;BME280;50131;52.084;5.228;2022-09-09T02:35:38;100734.0;;;16.11;88.71
63956;BME280;50131;52.084;5.228;2022-09-09T02:37:20;100737.0;;;16.02;89.18
63956;BME280;50131;52.084;5.228;2022-09-09T02:38:58;100736.0;;;16.02;88.92
63956;BME280;50131;52.084;5.228;2022-09-09T02:42:11;100735.0;;;15.98;88.93
63956;BME280;50131;52.084;5.228;2022-09-09T02:43:47;100733.0;;;15.99;89.08
63956;BME280;50131;52.084;5.228;2022-09-09T02:45:27;100731.0;;;15.92;88.88
63956;BME280;50131;52.084;5.228;2022-09-09T02:49:02;100730.0;;;15.96;88.88
63956;BME280;50131;52.084;5.228;2022-09-09T02:50:52;100733.0;;;15.91;89.43
63956;BME280;50131;52.084;5.228;2022-09-09T02:52:36;100731.0;;;15.9;89.41
63956;BME280;50131;52.084;5.228;2022-09-09T02:54:24;100728.0;;;15.87;89.27
63956;BME280;50131;52.084;5.228;2022-09-09T02:56:05;100723.0;;;15.92;89.24
63956;BME280;50131;52.084;5.228;2022-09-09T02:59:26;100725.0;;;15.91;89.25
63956;BME280;50131;52.084;5.228;2022-09-09T03:01:03;100726.0;;;15.89;89.11
63956;BME280;50131;52.084;5.228;2022-09-09T03:02:39;100722.0;;;15.89;89.15
63956;BME280;50131;52.084;5.228;2022-09-09T03:04:15;100723.0;;;15.92;89.02
63956;BME280;50131;52.084;5.228;2022-09-09T03:07:28;100725.0;;;15.9;89.13
63956;BME280;50131;52.084;5.228;2022-09-09T03:09:04;100719.0;;;15.89;89.0
63956;BME280;50131;52.084;5.228;2022-09-09T03:10:40;100725.0;;;15.87;88.9
63956;BME280;50131;52.084;5.228;2022-09-09T03:13:53;100726.0;;;15.89;88.99
63956;BME280;50131;52.084;5.228;2022-09-09T03:15:31;100722.0;;;15.92;88.69
63956;BME280;50131;52.084;5.228;2022-09-09T03:17:09;100721.0;;;15.95;88.61
63956;BME280;50131;52.084;5.228;2022-09-09T03:18:45;100716.0;;;15.89;88.53
63956;BME280;50131;52.084;5.228;2022-09-09T03:22:00;100718.0;;;15.87;88.82
63956;BME280;50131;52.084;5.228;2022-09-09T03:23:36;100721.0;;;15.88;88.42
63956;BME280;50131;52.084;5.228;2022-09-09T03:25:12;100715.0;;;15.87;88.38
63956;BME280;50131;52.084;5.228;2022-09-09T03:28:31;100719.0;;;15.88;88.38
63956;BME280;50131;52.084;5.228;2022-09-09T03:30:08;100722.0;;;15.89;88.43
63956;BME280;50131;52.084;5.228;2022-09-09T03:31:44;100720.0;;;15.9;88.32
63956;BME280;50131;52.084;5.228;2022-09-09T03:34:57;100719.0;;;15.91;88.18
63956;BME280;50131;52.084;5.228;2022-09-09T03:36:33;100716.0;;;15.94;88.2
63956;BME280;50131;52.084;5.228;2022-09-09T03:38:10;100716.0;;;15.89;88.29
63956;BME280;50131;52.084;5.228;2022-09-09T03:39:46;100719.0;;;15.89;88.31
63956;BME280;50131;52.084;5.228;2022-09-09T03:43:01;100716.0;;;15.87;88.44
63956;BME280;50131;52.084;5.228;2022-09-09T03:44:37;100713.0;;;15.91;88.45
63956;BME280;50131;52.084;5.228;2022-09-09T03:46:13;100710.0;;;15.93;87.98
63956;BME280;50131;52.084;5.228;2022-09-09T03:49:28;100713.0;;;16.02;87.62
63956;BME280;50131;52.084;5.228;2022-09-09T03:51:05;100716.0;;;15.98;87.58
63956;BME280;50131;52.084;5.228;2022-09-09T03:52:42;100717.0;;;15.98;87.29
63956;BME280;50131;52.084;5.228;2022-09-09T03:54:18;100718.0;;;15.97;87.64
63956;BME280;50131;52.084;5.228;2022-09-09T03:57:35;100717.0;;;15.99;87.39
63956;BME280;50131;52.084;5.228;2022-09-09T03:59:12;100711.0;;;15.98;87.34
63956;BME280;50131;52.084;5.228;2022-09-09T04:00:53;100711.0;;;15.93;87.6
63956;BME280;50131;52.084;5.228;2022-09-09T04:04:07;100712.0;;;15.89;87.65
63956;BME280;50131;52.084;5.228;2022-09-09T04:05:48;100713.0;;;15.88;87.74
63956;BME280;50131;52.084;5.228;2022-09-09T04:07:25;100716.0;;;15.89;87.64
63956;BME280;50131;52.084;5.228;2022-09-09T04:09:03;100712.0;;;15.87;87.64
63956;BME280;50131;52.084;5.228;2022-09-09T04:12:16;100712.0;;;15.91;87.67
63956;BME280;50131;52.084;5.228;2022-09-09T04:13:52;100705.0;;;15.75;88.18
63956;BME280;50131;52.084;5.228;2022-09-09T04:15:29;100699.0;;;15.85;88.38
63956;BME280;50131;52.084;5.228;2022-09-09T04:18:42;100700.0;;;15.87;88.0
63956;BME280;50131;52.084;5.228;2022-09-09T04:20:19;100705.0;;;15.91;88.14
63956;BME280;50131;52.084;5.228;2022-09-09T04:21:55;100700.0;;;15.92;87.91
63956;BME280;50131;52.084;5.228;2022-09-09T04:25:08;100702.0;;;15.92;88.03
63956;BME280;50131;52.084;5.228;2022-09-09T04:26:45;100699.0;;;15.96;88.07
63956;BME280;50131;52.084;5.228;2022-09-09T04:28:24;100694.0;;;15.99;88.07
63956;BME280;50131;52.084;5.228;2022-09-09T04:30:01;100694.0;;;15.99;87.71
63956;BME280;50131;52.084;5.228;2022-09-09T04:33:18;100694.0;;;16.02;87.9
63956;BME280;50131;52.084;5.228;2022-09-09T04:34:54;100689.0;;;16.04;87.57
63956;BME280;50131;52.084;5.228;2022-09-09T04:36:31;100687.0;;;16.05;87.06
63956;BME280;50131;52.084;5.228;2022-09-09T04:39:45;100684.0;;;16.05;87.38
63956;BME280;50131;52.084;5.228;2022-09-09T04:41:21;100684.0;;;16.03;87.26
63956;BME280;50131;52.084;5.228;2022-09-09T04:42:58;100681.0;;;16.02;86.9
63956;BME280;50131;52.084;5.228;2022-09-09T04:44:35;100678.0;;;16.02;87.11
63956;BME280;50131;52.084;5.228;2022-09-09T04:47:47;100678.0;;;16.02;87.29
63956;BME280;50131;52.084;5.228;2022-09-09T04:49:23;100680.0;;;15.97;87.7
63956;BME280;50131;52.084;5.228;2022-09-09T04:51:01;100680.0;;;15.94;87.85
63956;BME280;50131;52.084;5.228;2022-09-09T04:54:14;100682.0;;;15.97;87.63
63956;BME280;50131;52.084;5.228;2022-09-09T04:55:50;100685.0;;;15.94;87.97
63956;BME280;50131;52.084;5.228;2022-09-09T04:57:26;100684.0;;;15.98;87.61
63956;BME280;50131;52.084;5.228;2022-09-09T05:00:38;100683.0;;;15.99;87.98
63956;BME280;50131;52.084;5.228;2022-09-09T05:02:14;100684.0;;;16.04;87.7
63956;BME280;50131;52.084;5.228;2022-09-09T05:03:52;100684.0;;;16.0;87.46
63956;BME280;50131;52.084;5.228;2022-09-09T05:05:28;100682.0;;;16.04;87.44
63956;BME280;50131;52.084;5.228;2022-09-09T05:08:41;100684.0;;;16.06;87.48
63956;BME280;50131;52.084;5.228;2022-09-09T05:10:18;100680.0;;;16.07;87.43
63956;BME280;50131;52.084;5.228;2022-09-09T05:11:58;100680.0;;;16.07;87.38
63956;BME280;50131;52.084;5.228;2022-09-09T05:15:10;100680.0;;;16.09;87.42
63956;BME280;50131;52.084;5.228;2022-09-09T05:16:47;100674.0;;;16.07;87.41
63956;BME280;50131;52.084;5.228;2022-09-09T05:18:23;100676.0;;;16.11;87.31
63956;BME280;50131;52.084;5.228;2022-09-09T05:21:36;100673.0;;;16.02;87.76
63956;BME280;50131;52.084;5.228;2022-09-09T05:23:12;100671.0;;;16.03;87.5
63956;BME280;50131;52.084;5.228;2022-09-09T05:24:50;100672.0;;;16.03;87.53
63956;BME280;50131;52.084;5.228;2022-09-09T05:26:26;100678.0;;;16.05;87.66
63956;BME280;50131;52.084;5.228;2022-09-09T05:29:38;100676.0;;;16.04;87.53
63956;BME280;50131;52.084;5.228;2022-09-09T05:31:17;100677.0;;;16.05;87.78
63956;BME280;50131;52.084;5.228;2022-09-09T05:32:55;100680.0;;;16.09;87.76
63956;BME280;50131;52.084;5.228;2022-09-09T05:36:10;100673.0;;;16.09;87.5
63956;BME280;50131;52.084;5.228;2022-09-09T05:37:47;100667.0;;;16.07;87.95
63956;BME280;50131;52.084;5.228;2022-09-09T05:39:23;100663.0;;;16.09;88.12
63956;BME280;50131;52.084;5.228;2022-09-09T05:41:00;100665.0;;;16.09;87.67
63956;BME280;50131;52.084;5.228;2022-09-09T05:44:13;100662.0;;;16.16;87.78
63956;BME280;50131;52.084;5.228;2022-09-09T05:45:59;100661.0;;;16.15;87.73
63956;BME280;50131;52.084;5.228;2022-09-09T05:47:35;100667.0;;;16.11;87.96
63956;BME280;50131;52.084;5.228;2022-09-09T05:50:52;100670.0;;;16.13;88.12
63956;BME280;50131;52.084;5.228;2022-09-09T05:52:29;100672.0;;;16.15;88.17
63956;BME280;50131;52.084;5.228;2022-09-09T05:54:05;100681.0;;;16.21;88.12
63956;BME280;50131;52.084;5.228;2022-09-09T05:55:42;100682.0;;;16.23;88.26
63956;BME280;50131;52.084;5.228;2022-09-09T05:58:55;100684.0;;;16.25;88.41
63956;BME280;50131;52.084;5.228;2022-09-09T06:00:32;100682.0;;;16.28;88.33
63956;BME280;50131;52.084;5.228;2022-09-09T06:02:09;100683.0;;;16.3;88.13
63956;BME280;50131;52.084;5.228;2022-09-09T06:05:23;100685.0;;;16.34;88.1
63956;BME280;50131;52.084;5.228;2022-09-09T06:07:01;100682.0;;;16.34;87.93
63956;BME280;50131;52.084;5.228;2022-09-09T06:08:39;100685.0;;;16.39;88.23
63956;BME280;50131;52.084;5.228;2022-09-09T06:10:16;100685.0;;;16.43;88.39
63956;BME280;50131;52.084;5.228;2022-09-09T06:13:30;100685.0;;;16.46;88.09
63956;BME280;50131;52.084;5.228;2022-09-09T06:15:09;100680.0;;;16.38;88.57
63956;BME280;50131;52.084;5.228;2022-09-09T06:16:46;100678.0;;;16.5;88.09
63956;BME280;50131;52.084;5.228;2022-09-09T06:19:59;100681.0;;;16.57;88.08
63956;BME280;50131;52.084;5.228;2022-09-09T06:21:36;100683.0;;;16.61;87.88
63956;BME280;50131;52.084;5.228;2022-09-09T06:23:13;100677.0;;;16.59;88.31
63956;BME280;50131;52.084;5.228;2022-09-09T06:26:26;100676.0;;;16.62;88.2
63956;BME280;50131;52.084;5.228;2022-09-09T06:28:03;100673.0;;;16.7;88.24
63956;BME280;50131;52.084;5.228;2022-09-09T06:29:39;100674.0;;;16.75;88.24
63956;BME280;50131;52.084;5.228;2022-09-09T06:31:19;100675.0;;;16.8;88.22
63956;BME280;50131;52.084;5.228;2022-09-09T06:34:32;100678.0;;;16.9;88.17
63956;BME280;50131;52.084;5.228;2022-09-09T06:36:11;100675.0;;;16.96;88.13
63956;BME280;50131;52.084;5.228;2022-09-09T06:37:48;100675.0;;;17.0;88.25
63956;BME280;50131;52.084;5.228;2022-09-09T06:41:02;100670.0;;;17.11;87.89
63956;BME280;50131;52.084;5.228;2022-09-09T06:42:38;100670.0;;;17.11;87.92
63956;BME280;50131;52.084;5.228;2022-09-09T06:44:15;100671.0;;;17.18;87.74
63956;BME280;50131;52.084;5.228;2022-09-09T06:45:53;100667.0;;;17.27;87.44
63956;BME280;50131;52.084;5.228;2022-09-09T06:49:07;100663.0;;;17.32;87.19
63956;BME280;50131;52.084;5.228;2022-09-09T06:50:43;100667.0;;;17.36;87.36
63956;BME280;50131;52.084;5.228;2022-09-09T06:52:19;100665.0;;;17.45;86.96
63956;BME280;50131;52.084;5.228;2022-09-09T06:55:35;100667.0;;;17.48;86.93
63956;BME280;50131;52.084;5.228;2022-09-09T06:57:11;100668.0;;;17.56;87.3
63956;BME280;50131;52.084;5.228;2022-09-09T06:58:49;100671.0;;;17.66;87.0
63956;BME280;50131;52.084;5.228;2022-09-09T07:00:26;100674.0;;;17.68;87.22
63956;BME280;50131;52.084;5.228;2022-09-09T07:03:39;100672.0;;;17.78;86.9
63956;BME280;50131;52.084;5.228;2022-09-09T07:05:16;100675.0;;;17.84;85.83
63956;BME280;50131;52.084;5.228;2022-09-09T07:06:52;100668.0;;;17.87;85.24
63956;BME280;50131;52.084;5.228;2022-09-09T07:10:05;100663.0;;;17.93;84.92
63956;BME280;50131;52.084;5.228;2022-09-09T07:11:43;100662.0;;;18.05;84.83
63956;BME280;50131;52.084;5.228;2022-09-09T07:13:25;100661.0;;;18.11;84.41
63956;BME280;50131;52.084;5.228;2022-09-09T07:16:37;100669.0;;;18.11;84.53
63956;BME280;50131;52.084;5.228;2022-09-09T07:18:13;100657.0;;;18.2;83.57
63956;BME280;50131;52.084;5.228;2022-09-09T07:19:49;100659.0;;;18.29;83.32
63956;BME280;50131;52.084;5.228;2022-09-09T07:21:28;100659.0;;;18.34;83.23
63956;BME280;50131;52.084;5.228;2022-09-09T07:24:41;100664.0;;;18.39;82.46
63956;BME280;50131;52.084;5.228;2022-09-09T07:26:18;100663.0;;;18.45;82.03
63956;BME280;50131;52.084;5.228;2022-09-09T07:27:57;100664.0;;;18.52;81.55
63956;BME280;50131;52.084;5.228;2022-09-09T07:31:13;100663.0;;;18.66;80.47
63956;BME280;50131;52.084;5.228;2022-09-09T07:32:51;100658.0;;;18.61;80.64
63956;BME280;50131;52.084;5.228;2022-09-09T07:34:27;100657.0;;;18.64;80.55
63956;BME280;50131;52.084;5.228;2022-09-09T07:36:06;100660.0;;;18.7;80.33
63956;BME280;50131;52.084;5.228;2022-09-09T07:39:20;100657.0;;;18.8;79.69
63956;BME280;50131;52.084;5.228;2022-09-09T07:41:03;100671.0;;;18.78;79.53
63956;BME280;50131;52.084;5.228;2022-09-09T07:42:39;100670.0;;;18.68;79.05
63956;BME280;50131;52.084;5.228;2022-09-09T07:45:57;100675.0;;;18.7;79.61
63956;BME280;50131;52.084;5.228;2022-09-09T07:47:34;100671.0;;;18.75;80.27
63956;BME280;50131;52.084;5.228;2022-09-09T07:49:11;100675.0;;;18.78;79.53
63956;BME280;50131;52.084;5.228;2022-09-09T07:50:47;100680.0;;;18.86;78.77
63956;BME280;50131;52.084;5.228;2022-09-09T07:54:01;100678.0;;;18.89;78.56
63956;BME280;50131;52.084;5.228;2022-09-09T07:55:38;100678.0;;;18.88;79.45
63956;BME280;50131;52.084;5.228;2022-09-09T07:57:16;100680.0;;;18.86;77.91
63956;BME280;50131;52.084;5.228;2022-09-09T08:00:30;100683.0;;;18.93;78.16
63956;BME280;50131;52.084;5.228;2022-09-09T08:03:45;100682.0;;;18.81;76.86
63956;BME280;50131;52.084;5.228;2022-09-09T08:05:28;100682.0;;;18.78;77.27
63956;BME280;50131;52.084;5.228;2022-09-09T08:08:42;100685.0;;;18.84;77.91
63956;BME280;50131;52.084;5.228;2022-09-09T08:10:18;100680.0;;;18.75;77.69
63956;BME280;50131;52.084;5.228;2022-09-09T08:11:57;100684.0;;;18.7;77.78
63956;BME280;50131;52.084;5.228;2022-09-09T08:15:11;100686.0;;;18.61;77.75
63956;BME280;50131;52.084;5.228;2022-09-09T08:16:49;100680.0;;;18.71;78.03
63956;BME280;50131;52.084;5.228;2022-09-09T08:18:26;100681.0;;;18.64;76.86
63956;BME280;50131;52.084;5.228;2022-09-09T08:20:06;100686.0;;;18.71;77.66
63956;BME280;50131;52.084;5.228;2022-09-09T08:23:21;100686.0;;;18.7;78.11
63956;BME280;50131;52.084;5.228;2022-09-09T08:24:58;100686.0;;;18.71;77.45
63956;BME280;50131;52.084;5.228;2022-09-09T08:26:36;100687.0;;;18.78;76.91
63956;BME280;50131;52.084;5.228;2022-09-09T08:29:48;100690.0;;;18.7;77.06
63956;BME280;50131;52.084;5.228;2022-09-09T08:31:27;100687.0;;;18.77;77.0
63956;BME280;50131;52.084;5.228;2022-09-09T08:33:05;100691.0;;;18.81;77.62
63956;BME280;50131;52.084;5.228;2022-09-09T08:34:41;100686.0;;;18.75;78.13
63956;BME280;50131;52.084;5.228;2022-09-09T08:37:58;100682.0;;;18.79;77.34
63956;BME280;50131;52.084;5.228;2022-09-09T08:39:34;100683.0;;;18.86;77.95
63956;BME280;50131;52.084;5.228;2022-09-09T08:41:54;100685.0;;;18.88;76.87
63956;BME280;50131;52.084;5.228;2022-09-09T08:43:43;100685.0;;;18.87;76.61
63956;BME280;50131;52.084;5.228;2022-09-09T08:45:28;100696.0;;;18.91;76.75
63956;BME280;50131;52.084;5.228;2022-09-09T08:47:11;100694.0;;;18.91;76.91
63956;BME280;50131;52.084;5.228;2022-09-09T08:50:44;100697.0;;;18.87;76.16
63956;BME280;50131;52.084;5.228;2022-09-09T08:52:23;100696.0;;;18.91;76.97
63956;BME280;50131;52.084;5.228;2022-09-09T08:54:04;100698.0;;;18.96;76.33
63956;BME280;50131;52.084;5.228;2022-09-09T08:55:45;100703.0;;;18.91;75.92
63956;BME280;50131;52.084;5.228;2022-09-09T08:59:04;100695.0;;;18.91;76.47
63956;BME280;50131;52.084;5.228;2022-09-09T09:00:50;100694.0;;;18.93;76.22
63956;BME280;50131;52.084;5.228;2022-09-09T09:02:53;100699.0;;;19.0;76.53
63956;BME280;50131;52.084;5.228;2022-09-09T09:04:45;100702.0;;;18.91;76.19
63956;BME280;50131;52.084;5.228;2022-09-09T09:06:38;100703.0;;;18.91;76.94
63956;BME280;50131;52.084;5.228;2022-09-09T09:08:26;100701.0;;;18.95;76.83
63956;BME280;50131;52.084;5.228;2022-09-09T09:12:01;100705.0;;;18.91;75.86
63956;BME280;50131;52.084;5.228;2022-09-09T09:13:48;100702.0;;;18.93;75.34
63956;BME280;50131;52.084;5.228;2022-09-09T09:15:31;100703.0;;;18.96;75.72
63956;BME280;50131;52.084;5.228;2022-09-09T09:17:14;100706.0;;;19.06;75.19
63956;BME280;50131;52.084;5.228;2022-09-09T09:18:55;100705.0;;;19.02;75.11
63956;BME280;50131;52.084;5.228;2022-09-09T09:22:21;100706.0;;;19.02;75.66
63956;BME280;50131;52.084;5.228;2022-09-09T09:24:00;100706.0;;;19.09;75.3
63956;BME280;50131;52.084;5.228;2022-09-09T09:25:39;100710.0;;;19.11;75.61
63956;BME280;50131;52.084;5.228;2022-09-09T09:27:25;100709.0;;;19.07;76.47
63956;BME280;50131;52.084;5.228;2022-09-09T09:29:11;100708.0;;;19.13;75.58
63956;BME280;50131;52.084;5.228;2022-09-09T09:32:33;100709.0;;;19.09;75.41
63956;BME280;50131;52.084;5.228;2022-09-09T09:34:12;100711.0;;;19.04;75.52
63956;BME280;50131;52.084;5.228;2022-09-09T09:35:48;100713.0;;;19.09;75.14
63956;BME280;50131;52.084;5.228;2022-09-09T09:37:28;100715.0;;;19.09;75.39
63956;BME280;50131;52.084;5.228;2022-09-09T09:40:49;100720.0;;;19.05;76.05
63956;BME280;50131;52.084;5.228;2022-09-09T09:42:29;100723.0;;;19.03;78.0
63956;BME280;50131;52.084;5.228;2022-09-09T09:44:23;100725.0;;;19.16;78.16
63956;BME280;50131;52.084;5.228;2022-09-09T09:46:00;100721.0;;;19.0;78.39
63956;BME280;50131;52.084;5.228;2022-09-09T09:49:17;100721.0;;;18.86;79.19
63956;BME280;50131;52.084;5.228;2022-09-09T09:50:56;100720.0;;;18.82;81.11
63956;BME280;50131;52.084;5.228;2022-09-09T09:52:35;100721.0;;;18.8;80.83
63956;BME280;50131;52.084;5.228;2022-09-09T09:54:18;100719.0;;;18.75;81.41
63956;BME280;50131;52.084;5.228;2022-09-09T09:57:39;100717.0;;;18.68;81.33
63956;BME280;50131;52.084;5.228;2022-09-09T09:59:21;100714.0;;;18.52;82.51
63956;BME280;50131;52.084;5.228;2022-09-09T10:01:20;100709.0;;;18.59;82.33
63956;BME280;50131;52.084;5.228;2022-09-09T10:02:59;100711.0;;;18.63;81.97
63956;BME280;50131;52.084;5.228;2022-09-09T10:04:35;100708.0;;;18.68;81.62
63956;BME280;50131;52.084;5.228;2022-09-09T10:08:00;100709.0;;;18.66;81.16
63956;BME280;50131;52.084;5.228;2022-09-09T10:09:37;100705.0;;;18.64;81.61
63956;BME280;50131;52.084;5.228;2022-09-09T10:11:26;100710.0;;;18.59;81.64
63956;BME280;50131;52.084;5.228;2022-09-09T10:13:11;100705.0;;;18.68;80.69
63956;BME280;50131;52.084;5.228;2022-09-09T10:16:49;100706.0;;;18.64;81.77
63956;BME280;50131;52.084;5.228;2022-09-09T10:18:40;100713.0;;;18.73;81.41
63956;BME280;50131;52.084;5.228;2022-09-09T10:20:33;100730.0;;;18.66;82.15
63956;BME280;50131;52.084;5.228;2022-09-09T10:22:22;100720.0;;;18.7;81.78
63956;BME280;50131;52.084;5.228;2022-09-09T10:24:15;100718.0;;;18.54;81.86
63956;BME280;50131;52.084;5.228;2022-09-09T10:26:10;100716.0;;;18.5;82.99
63956;BME280;50131;52.084;5.228;2022-09-09T10:28:29;100720.0;;;18.61;82.54
63956;BME280;50131;52.084;5.228;2022-09-09T10:31:05;100719.0;;;18.66;82.06
63956;BME280;50131;52.084;5.228;2022-09-09T10:33:00;100724.0;;;18.53;82.69
63956;BME280;50131;52.084;5.228;2022-09-09T10:34:56;100719.0;;;18.59;83.52
63956;BME280;50131;52.084;5.228;2022-09-09T10:36:32;100715.0;;;18.7;84.18
63956;BME280;50131;52.084;5.228;2022-09-09T10:38:16;100720.0;;;18.8;83.66
63956;BME280;50131;52.084;5.228;2022-09-09T10:41:57;100714.0;;;18.86;82.65
63956;BME280;50131;52.084;5.228;2022-09-09T10:43:50;100714.0;;;18.86;82.33
63956;BME280;50131;52.084;5.228;2022-09-09T10:45:44;100710.0;;;18.93;81.97
63956;BME280;50131;52.084;5.228;2022-09-09T10:47:36;100712.0;;;18.86;83.16
63956;BME280;50131;52.084;5.228;2022-09-09T10:49:40;100703.0;;;18.93;83.29
63956;BME280;50131;52.084;5.228;2022-09-09T10:51:23;100708.0;;;19.09;82.85
63956;BME280;50131;52.084;5.228;2022-09-09T10:53:11;100705.0;;;19.0;83.75
63956;BME280;50131;52.084;5.228;2022-09-09T10:54:56;100705.0;;;19.2;82.24
63956;BME280;50131;52.084;5.228;2022-09-09T10:58:18;100705.0;;;19.11;82.47
63956;BME280;50131;52.084;5.228;2022-09-09T11:00:04;100701.0;;;19.2;81.83
63956;BME280;50131;52.084;5.228;2022-09-09T11:01:45;100699.0;;;19.25;80.86
63956;BME280;50131;52.084;5.228;2022-09-09T11:03:25;100700.0;;;19.36;81.3
63956;BME280;50131;52.084;5.228;2022-09-09T11:06:54;100697.0;;;19.36;82.11
63956;BME280;50131;52.084;5.228;2022-09-09T11:08:34;100699.0;;;19.41;80.97
63956;BME280;50131;52.084;5.228;2022-09-09T11:10:18;100697.0;;;19.45;80.77
63956;BME280;50131;52.084;5.228;2022-09-09T11:12:01;100695.0;;;19.5;79.98
63956;BME280;50131;52.084;5.228;2022-09-09T11:13:42;100694.0;;;19.55;79.77